sensor_id;sensor_type;location;lat;lon;timestamp;pressure;altitude;pressure_sealevel;temperature;humidity
17260;BME280;8746;49.230;9.220;2023-01-29T00:00:00;101191.03;;;-0.76;77.48
17260;BME280;8746;49.230;9.220;2023-01-29T00:02:25;101187.69;;;-0.73;78.27
17260;BME280;8746;49.230;9.220;2023-01-29T00:04:51;101182.53;;;-0.72;78.16
17260;BME280;8746;49.230;9.220;2023-01-29T00:07:16;101186.81;;;-0.72;78.22
17260;BME280;8746;49.230;9.220;2023-01-29T00:09:42;101189.31;;;-0.77;78.35
17260;BME280;8746;49.230;9.220;2023-01-29T00:12:07;101192.09;;;-0.69;78.04
17260;BME280;8746;49.230;9.220;2023-01-29T00:14:33;101190.00;;;-0.83;78.43
17260;BME280;8746;49.230;9.220;2023-01-29T00:16:59;101188.56;;;-0.71;77.58
17260;BME280;8746;49.230;9.220;2023-01-29T00:19:24;101193.69;;;-0.74;77.69
17260;BME280;8746;49.230;9.220;2023-01-29T00:21:49;101199.69;;;-0.77;78.88
17260;BME280;8746;49.230;9.220;2023-01-29T00:24:15;101191.84;;;-0.78;78.12
17260;BME280;8746;49.230;9.220;2023-01-29T00:26:40;101196.84;;;-0.85;78.67
17260;BME280;8746;49.230;9.220;2023-01-29T00:29:07;101200.53;;;-0.76;78.79
17260;BME280;8746;49.230;9.220;2023-01-29T00:31:32;101199.69;;;-0.77;78.43
17260;BME280;8746;49.230;9.220;2023-01-29T00:33:58;101192.47;;;-0.87;78.69
17260;BME280;8746;49.230;9.220;2023-01-29T00:36:24;101200.88;;;-0.96;78.56
17260;BME280;8746;49.230;9.220;2023-01-29T00:38:57;101201.34;;;-0.79;78.19
17260;BME280;8746;49.230;9.220;2023-01-29T00:41:31;101198.56;;;-0.87;78.12
17260;BME280;8746;49.230;9.220;2023-01-29T00:44:16;101195.19;;;-0.83;78.81
17260;BME280;8746;49.230;9.220;2023-01-29T00:47:01;101201.03;;;-0.91;79.18
17260;BME280;8746;49.230;9.220;2023-01-29T00:49:26;101191.53;;;-0.91;79.83
17260;BME280;8746;49.230;9.220;2023-01-29T00:51:52;101192.44;;;-0.89;79.89
17260;BME280;8746;49.230;9.220;2023-01-29T00:54:36;101191.69;;;-0.85;79.63
17260;BME280;8746;49.230;9.220;2023-01-29T00:57:03;101195.84;;;-0.91;80.01
17260;BME280;8746;49.230;9.220;2023-01-29T00:59:28;101189.34;;;-0.75;78.99
17260;BME280;8746;49.230;9.220;2023-01-29T01:01:54;101186.44;;;-0.88;79.58
17260;BME280;8746;49.230;9.220;2023-01-29T01:04:38;101186.44;;;-0.88;79.66
17260;BME280;8746;49.230;9.220;2023-01-29T01:07:06;101181.94;;;-0.93;80.13
17260;BME280;8746;49.230;9.220;2023-01-29T01:09:34;101181.47;;;-0.78;79.63
17260;BME280;8746;49.230;9.220;2023-01-29T01:12:18;101185.53;;;-0.88;79.28
17260;BME280;8746;49.230;9.220;2023-01-29T01:14:44;101181.25;;;-0.88;79.37
17260;BME280;8746;49.230;9.220;2023-01-29T01:17:10;101189.66;;;-0.97;79.06
17260;BME280;8746;49.230;9.220;2023-01-29T01:19:35;101178.41;;;-0.97;79.72
17260;BME280;8746;49.230;9.220;2023-01-29T01:22:01;101182.59;;;-1.02;80.29
17260;BME280;8746;49.230;9.220;2023-01-29T01:24:26;101192.97;;;-1.01;79.69
17260;BME280;8746;49.230;9.220;2023-01-29T01:26:51;101198.16;;;-1.01;80.08
17260;BME280;8746;49.230;9.220;2023-01-29T01:29:17;101196.50;;;-0.99;80.85
17260;BME280;8746;49.230;9.220;2023-01-29T01:31:42;101183.44;;;-1.02;80.46
17260;BME280;8746;49.230;9.220;2023-01-29T01:34:07;101188.56;;;-1.05;80.05
17260;BME280;8746;49.230;9.220;2023-01-29T01:36:33;101188.69;;;-1.00;79.83
17260;BME280;8746;49.230;9.220;2023-01-29T01:38:58;101193.06;;;-0.99;80.10
17260;BME280;8746;49.230;9.220;2023-01-29T01:41:24;101197.97;;;-1.08;79.99
17260;BME280;8746;49.230;9.220;2023-01-29T01:43:54;101186.78;;;-1.07;79.97
17260;BME280;8746;49.230;9.220;2023-01-29T01:46:22;101182.44;;;-1.08;79.92
17260;BME280;8746;49.230;9.220;2023-01-29T01:49:13;101172.94;;;-1.08;80.23
17260;BME280;8746;49.230;9.220;2023-01-29T01:51:43;101178.19;;;-1.06;79.95
17260;BME280;8746;49.230;9.220;2023-01-29T01:54:24;101190.06;;;-1.13;81.06
17260;BME280;8746;49.230;9.220;2023-01-29T01:56:57;101185.84;;;-1.09;81.06
17260;BME280;8746;49.230;9.220;2023-01-29T01:59:35;101176.91;;;-1.21;81.68
17260;BME280;8746;49.230;9.220;2023-01-29T02:02:03;101181.03;;;-1.27;82.46
17260;BME280;8746;49.230;9.220;2023-01-29T02:04:48;101185.34;;;-1.28;82.58
17260;BME280;8746;49.230;9.220;2023-01-29T02:07:33;101189.03;;;-1.20;82.32
17260;BME280;8746;49.230;9.220;2023-01-29T02:10:17;101177.81;;;-1.19;82.61
17260;BME280;8746;49.230;9.220;2023-01-29T02:12:44;101179.53;;;-1.19;82.77
17260;BME280;8746;49.230;9.220;2023-01-29T02:15:11;101182.91;;;-1.22;82.16
17260;BME280;8746;49.230;9.220;2023-01-29T02:17:36;101181.25;;;-1.20;81.37
17260;BME280;8746;49.230;9.220;2023-01-29T02:20:22;101176.81;;;-1.24;82.02
17260;BME280;8746;49.230;9.220;2023-01-29T02:26:14;101182.00;;;-1.24;82.12
17260;BME280;8746;49.230;9.220;2023-01-29T02:28:53;101185.50;;;-1.22;81.91
17260;BME280;8746;49.230;9.220;2023-01-29T02:36:46;101182.94;;;-1.20;82.33
17260;BME280;8746;49.230;9.220;2023-01-29T02:39:36;101177.06;;;-1.15;82.37
17260;BME280;8746;49.230;9.220;2023-01-29T02:42:23;101187.59;;;-1.08;82.00
17260;BME280;8746;49.230;9.220;2023-01-29T02:45:17;101189.09;;;-1.17;82.00
17260;BME280;8746;49.230;9.220;2023-01-29T02:47:59;101178.66;;;-1.20;82.21
17260;BME280;8746;49.230;9.220;2023-01-29T02:50:39;101173.56;;;-1.17;81.62
17260;BME280;8746;49.230;9.220;2023-01-29T02:58:20;101172.06;;;-1.08;80.29
17260;BME280;8746;49.230;9.220;2023-01-29T03:00:50;101168.22;;;-1.23;81.11
17260;BME280;8746;49.230;9.220;2023-01-29T03:03:22;101166.44;;;-1.24;81.37
17260;BME280;8746;49.230;9.220;2023-01-29T03:06:00;101164.94;;;-1.17;80.45
17260;BME280;8746;49.230;9.220;2023-01-29T03:08:50;101171.81;;;-1.18;81.28
17260;BME280;8746;49.230;9.220;2023-01-29T03:11:16;101163.03;;;-1.23;81.02
17260;BME280;8746;49.230;9.220;2023-01-29T03:14:02;101164.69;;;-1.25;80.80
17260;BME280;8746;49.230;9.220;2023-01-29T03:16:37;101164.69;;;-1.25;81.00
17260;BME280;8746;49.230;9.220;2023-01-29T03:19:14;101166.91;;;-1.39;81.07
17260;BME280;8746;49.230;9.220;2023-01-29T03:21:51;101162.41;;;-1.45;81.10
17260;BME280;8746;49.230;9.220;2023-01-29T03:24:46;101162.59;;;-1.38;82.43
17260;BME280;8746;49.230;9.220;2023-01-29T03:27:52;101155.91;;;-1.32;82.65
17260;BME280;8746;49.230;9.220;2023-01-29T03:30:43;101157.56;;;-1.34;82.13
17260;BME280;8746;49.230;9.220;2023-01-29T03:33:33;101160.06;;;-1.37;81.58
17260;BME280;8746;49.230;9.220;2023-01-29T03:36:05;101159.56;;;-1.55;82.86
17260;BME280;8746;49.230;9.220;2023-01-29T03:38:33;101159.84;;;-1.45;82.94
17260;BME280;8746;49.230;9.220;2023-01-29T03:41:04;101158.66;;;-1.56;83.28
17260;BME280;8746;49.230;9.220;2023-01-29T03:43:46;101157.88;;;-1.53;84.79
17260;BME280;8746;49.230;9.220;2023-01-29T03:49:19;101167.59;;;-1.45;84.29
17260;BME280;8746;49.230;9.220;2023-01-29T03:51:54;101179.56;;;-1.48;83.68
17260;BME280;8746;49.230;9.220;2023-01-29T03:54:27;101174.31;;;-1.51;83.22
17260;BME280;8746;49.230;9.220;2023-01-29T03:59:43;101181.47;;;-1.42;82.74
17260;BME280;8746;49.230;9.220;2023-01-29T04:02:15;101177.78;;;-1.51;83.58
17260;BME280;8746;49.230;9.220;2023-01-29T04:04:45;101175.09;;;-1.55;84.31
17260;BME280;8746;49.230;9.220;2023-01-29T04:07:13;101187.94;;;-1.57;83.87
17260;BME280;8746;49.230;9.220;2023-01-29T04:09:50;101190.47;;;-1.60;84.28
17260;BME280;8746;49.230;9.220;2023-01-29T04:12:19;101182.78;;;-1.57;84.49
17260;BME280;8746;49.230;9.220;2023-01-29T04:14:47;101184.47;;;-1.59;83.63
17260;BME280;8746;49.230;9.220;2023-01-29T04:17:18;101185.03;;;-1.68;83.68
17260;BME280;8746;49.230;9.220;2023-01-29T04:19:45;101190.31;;;-1.65;83.92
17260;BME280;8746;49.230;9.220;2023-01-29T04:22:17;101196.38;;;-1.64;84.58
17260;BME280;8746;49.230;9.220;2023-01-29T04:24:44;101192.22;;;-1.59;84.45
17260;BME280;8746;49.230;9.220;2023-01-29T04:27:24;101191.38;;;-1.58;84.02
17260;BME280;8746;49.230;9.220;2023-01-29T04:30:01;101185.47;;;-1.54;84.81
17260;BME280;8746;49.230;9.220;2023-01-29T04:38:11;101193.75;;;-1.35;83.70
17260;BME280;8746;49.230;9.220;2023-01-29T04:40:49;101191.66;;;-1.49;83.91
17260;BME280;8746;49.230;9.220;2023-01-29T04:46:10;101192.97;;;-1.33;83.01
17260;BME280;8746;49.230;9.220;2023-01-29T04:51:50;101189.16;;;-1.46;84.01
17260;BME280;8746;49.230;9.220;2023-01-29T04:57:19;101191.44;;;-1.56;84.27
17260;BME280;8746;49.230;9.220;2023-01-29T05:00:13;101193.94;;;-1.58;84.11
17260;BME280;8746;49.230;9.220;2023-01-29T05:02:42;101190.03;;;-1.45;83.64
17260;BME280;8746;49.230;9.220;2023-01-29T05:05:09;101199.59;;;-1.42;83.89
17260;BME280;8746;49.230;9.220;2023-01-29T05:07:37;101195.16;;;-1.47;83.65
17260;BME280;8746;49.230;9.220;2023-01-29T05:10:06;101197.28;;;-1.33;83.39
17260;BME280;8746;49.230;9.220;2023-01-29T05:12:33;101196.69;;;-1.23;82.78
17260;BME280;8746;49.230;9.220;2023-01-29T05:15:02;101187.91;;;-1.30;82.75
17260;BME280;8746;49.230;9.220;2023-01-29T05:17:30;101186.00;;;-1.35;82.75
17260;BME280;8746;49.230;9.220;2023-01-29T05:19:55;101186.94;;;-1.33;83.19
17260;BME280;8746;49.230;9.220;2023-01-29T05:22:21;101173.50;;;-1.50;82.96
17260;BME280;8746;49.230;9.220;2023-01-29T05:24:50;101165.63;;;-1.53;82.94
17260;BME280;8746;49.230;9.220;2023-01-29T05:27:35;101154.31;;;-1.57;83.27
17260;BME280;8746;49.230;9.220;2023-01-29T05:30:19;101151.81;;;-1.54;84.43
17260;BME280;8746;49.230;9.220;2023-01-29T05:32:45;101144.03;;;-1.55;84.39
17260;BME280;8746;49.230;9.220;2023-01-29T05:35:10;101141.13;;;-1.36;84.72
17260;BME280;8746;49.230;9.220;2023-01-29T05:37:35;101154.94;;;-1.35;84.12
17260;BME280;8746;49.230;9.220;2023-01-29T05:40:01;101162.91;;;-1.27;83.80
17260;BME280;8746;49.230;9.220;2023-01-29T05:42:26;101152.00;;;-1.16;83.57
17260;BME280;8746;49.230;9.220;2023-01-29T05:44:52;101151.41;;;-1.37;83.97
17260;BME280;8746;49.230;9.220;2023-01-29T05:47:18;101153.94;;;-1.40;84.75
17260;BME280;8746;49.230;9.220;2023-01-29T05:49:44;101161.53;;;-1.47;84.79
17260;BME280;8746;49.230;9.220;2023-01-29T05:52:09;101164.19;;;-1.43;85.31
17260;BME280;8746;49.230;9.220;2023-01-29T05:54:34;101155.53;;;-1.46;83.74
17260;BME280;8746;49.230;9.220;2023-01-29T05:57:00;101155.41;;;-1.49;83.80
17260;BME280;8746;49.230;9.220;2023-01-29T05:59:25;101159.72;;;-1.49;84.06
17260;BME280;8746;49.230;9.220;2023-01-29T06:01:51;101152.78;;;-1.50;83.67
17260;BME280;8746;49.230;9.220;2023-01-29T06:04:16;101156.03;;;-1.57;83.88
17260;BME280;8746;49.230;9.220;2023-01-29T06:06:41;101156.97;;;-1.55;84.80
17260;BME280;8746;49.230;9.220;2023-01-29T06:09:09;101158.66;;;-1.56;84.87
17260;BME280;8746;49.230;9.220;2023-01-29T06:11:35;101160.69;;;-1.46;85.02
17260;BME280;8746;49.230;9.220;2023-01-29T06:14:00;101165.78;;;-1.49;84.93
17260;BME280;8746;49.230;9.220;2023-01-29T06:16:25;101166.56;;;-1.51;84.67
17260;BME280;8746;49.230;9.220;2023-01-29T06:18:51;101157.72;;;-1.58;84.93
17260;BME280;8746;49.230;9.220;2023-01-29T06:21:16;101159.44;;;-1.58;84.90
17260;BME280;8746;49.230;9.220;2023-01-29T06:23:41;101158.69;;;-1.54;84.91
17260;BME280;8746;49.230;9.220;2023-01-29T06:26:12;101162.66;;;-1.67;84.81
17260;BME280;8746;49.230;9.220;2023-01-29T06:28:39;101156.97;;;-1.55;85.14
17260;BME280;8746;49.230;9.220;2023-01-29T06:31:05;101163.97;;;-1.51;84.57
17260;BME280;8746;49.230;9.220;2023-01-29T06:33:31;101160.50;;;-1.52;85.26
17260;BME280;8746;49.230;9.220;2023-01-29T06:36:01;101168.25;;;-1.52;84.91
17260;BME280;8746;49.230;9.220;2023-01-29T06:38:27;101168.53;;;-1.42;84.22
17260;BME280;8746;49.230;9.220;2023-01-29T06:40:54;101167.44;;;-1.51;84.20
17260;BME280;8746;49.230;9.220;2023-01-29T06:43:20;101173.44;;;-1.52;84.19
17260;BME280;8746;49.230;9.220;2023-01-29T06:45:54;101170.72;;;-1.56;83.98
17260;BME280;8746;49.230;9.220;2023-01-29T06:48:20;101160.50;;;-1.52;84.79
17260;BME280;8746;49.230;9.220;2023-01-29T06:50:46;101167.50;;;-1.49;84.89
17260;BME280;8746;49.230;9.220;2023-01-29T06:53:11;101176.16;;;-1.47;84.30
17260;BME280;8746;49.230;9.220;2023-01-29T06:55:37;101175.25;;;-1.49;84.40
17260;BME280;8746;49.230;9.220;2023-01-29T06:58:06;101179.69;;;-1.45;84.09
17260;BME280;8746;49.230;9.220;2023-01-29T07:00:32;101180.53;;;-1.45;84.21
17260;BME280;8746;49.230;9.220;2023-01-29T07:02:58;101189.81;;;-1.53;85.05
17260;BME280;8746;49.230;9.220;2023-01-29T07:05:23;101188.31;;;-1.45;84.70
17260;BME280;8746;49.230;9.220;2023-01-29T07:07:48;101183.19;;;-1.43;84.23
17260;BME280;8746;49.230;9.220;2023-01-29T07:10:14;101186.28;;;-1.55;84.02
17260;BME280;8746;49.230;9.220;2023-01-29T07:12:39;101180.44;;;-1.49;83.90
17260;BME280;8746;49.230;9.220;2023-01-29T07:15:05;101179.50;;;-1.51;84.90
17260;BME280;8746;49.230;9.220;2023-01-29T07:17:31;101186.38;;;-1.52;84.52
17260;BME280;8746;49.230;9.220;2023-01-29T07:19:56;101188.06;;;-1.54;84.31
17260;BME280;8746;49.230;9.220;2023-01-29T07:22:21;101182.88;;;-1.54;84.95
17260;BME280;8746;49.230;9.220;2023-01-29T07:24:47;101183.13;;;-1.45;85.14
17260;BME280;8746;49.230;9.220;2023-01-29T07:27:12;101174.34;;;-1.50;84.79
17260;BME280;8746;49.230;9.220;2023-01-29T07:29:38;101176.47;;;-1.36;84.47
17260;BME280;8746;49.230;9.220;2023-01-29T07:32:03;101171.28;;;-1.36;84.41
17260;BME280;8746;49.230;9.220;2023-01-29T07:34:29;101179.72;;;-1.43;84.29
17260;BME280;8746;49.230;9.220;2023-01-29T07:36:55;101188.53;;;-1.37;84.76
17260;BME280;8746;49.230;9.220;2023-01-29T07:39:21;101192.69;;;-1.42;84.90
17260;BME280;8746;49.230;9.220;2023-01-29T07:41:47;101200.53;;;-1.40;85.37
17260;BME280;8746;49.230;9.220;2023-01-29T07:44:13;101215.34;;;-1.35;84.57
17260;BME280;8746;49.230;9.220;2023-01-29T07:46:38;101218.84;;;-1.33;84.44
17260;BME280;8746;49.230;9.220;2023-01-29T07:49:03;101217.28;;;-1.27;84.15
17260;BME280;8746;49.230;9.220;2023-01-29T07:51:29;101211.13;;;-1.31;84.14
17260;BME280;8746;49.230;9.220;2023-01-29T07:53:54;101213.97;;;-1.23;83.66
17260;BME280;8746;49.230;9.220;2023-01-29T07:56:19;101214.81;;;-1.23;83.31
17260;BME280;8746;49.230;9.220;2023-01-29T07:58:45;101216.66;;;-1.19;83.77
17260;BME280;8746;49.230;9.220;2023-01-29T08:01:10;101217.75;;;-1.10;83.35
17260;BME280;8746;49.230;9.220;2023-01-29T08:03:35;101218.94;;;-0.99;83.27
17260;BME280;8746;49.230;9.220;2023-01-29T08:06:04;101225.44;;;-1.14;82.96
17260;BME280;8746;49.230;9.220;2023-01-29T08:08:29;101229.13;;;-1.05;83.96
17260;BME280;8746;49.230;9.220;2023-01-29T08:10:55;101222.03;;;-1.13;82.86
17260;BME280;8746;49.230;9.220;2023-01-29T08:13:20;101218.75;;;-1.05;83.32
17260;BME280;8746;49.230;9.220;2023-01-29T08:15:46;101228.59;;;-0.93;82.91
17260;BME280;8746;49.230;9.220;2023-01-29T08:18:12;101232.94;;;-0.92;81.72
17260;BME280;8746;49.230;9.220;2023-01-29T08:20:37;101224.22;;;-0.94;82.19
17260;BME280;8746;49.230;9.220;2023-01-29T08:23:05;101226.09;;;-0.90;82.02
17260;BME280;8746;49.230;9.220;2023-01-29T08:25:31;101228.28;;;-0.72;81.72
17260;BME280;8746;49.230;9.220;2023-01-29T08:27:58;101230.78;;;-0.77;81.29
17260;BME280;8746;49.230;9.220;2023-01-29T08:30:26;101221.94;;;-0.84;81.12
17260;BME280;8746;49.230;9.220;2023-01-29T08:32:52;101217.56;;;-0.86;80.96
17260;BME280;8746;49.230;9.220;2023-01-29T08:35:17;101223.91;;;-0.75;81.88
17260;BME280;8746;49.230;9.220;2023-01-29T08:37:42;101225.19;;;-0.59;81.29
17260;BME280;8746;49.230;9.220;2023-01-29T08:40:08;101229.84;;;-0.45;80.58
17260;BME280;8746;49.230;9.220;2023-01-29T08:42:36;101232.59;;;-0.39;80.00
17260;BME280;8746;49.230;9.220;2023-01-29T08:45:02;101225.00;;;-0.33;79.22
17260;BME280;8746;49.230;9.220;2023-01-29T08:47:27;101227.53;;;-0.35;79.30
17260;BME280;8746;49.230;9.220;2023-01-29T08:49:52;101230.88;;;-0.39;79.52
17260;BME280;8746;49.230;9.220;2023-01-29T08:52:18;101229.63;;;-0.55;77.43
17260;BME280;8746;49.230;9.220;2023-01-29T08:54:43;101234.66;;;-0.61;78.19
17260;BME280;8746;49.230;9.220;2023-01-29T08:57:08;101231.44;;;-0.51;79.39
17260;BME280;8746;49.230;9.220;2023-01-29T08:59:34;101226.69;;;-0.34;78.55
17260;BME280;8746;49.230;9.220;2023-01-29T09:01:59;101225.19;;;-0.59;78.48
17260;BME280;8746;49.230;9.220;2023-01-29T09:04:24;101225.44;;;-0.50;79.09
17260;BME280;8746;49.230;9.220;2023-01-29T09:06:50;101238.22;;;-0.56;79.06
17260;BME280;8746;49.230;9.220;2023-01-29T09:09:16;101235.44;;;-0.30;78.69
17260;BME280;8746;49.230;9.220;2023-01-29T09:11:42;101243.66;;;-0.11;78.86
17260;BME280;8746;49.230;9.220;2023-01-29T09:14:08;101253.50;;;-0.33;78.39
17260;BME280;8746;49.230;9.220;2023-01-29T09:16:36;101246.91;;;-0.20;78.17
17260;BME280;8746;49.230;9.220;2023-01-29T09:19:01;101251.53;;;-0.08;76.64
17260;BME280;8746;49.230;9.220;2023-01-29T09:21:27;101237.50;;;-0.15;76.26
17260;BME280;8746;49.230;9.220;2023-01-29T09:23:52;101226.81;;;0.06;74.92
17260;BME280;8746;49.230;9.220;2023-01-29T09:26:17;101217.78;;;0.28;75.63
17260;BME280;8746;49.230;9.220;2023-01-29T09:28:42;101209.47;;;0.05;74.38
17260;BME280;8746;49.230;9.220;2023-01-29T09:31:08;101199.94;;;0.06;73.74
17260;BME280;8746;49.230;9.220;2023-01-29T09:33:33;101192.81;;;0.35;75.47
17260;BME280;8746;49.230;9.220;2023-01-29T09:36:01;101187.06;;;0.50;72.17
17260;BME280;8746;49.230;9.220;2023-01-29T09:38:26;101185.03;;;0.76;72.66
17260;BME280;8746;49.230;9.220;2023-01-29T09:41:05;101170.00;;;0.61;73.53
17260;BME280;8746;49.230;9.220;2023-01-29T09:43:46;101167.56;;;0.69;72.37
17260;BME280;8746;49.230;9.220;2023-01-29T09:46:42;101176.97;;;0.62;72.23
17260;BME280;8746;49.230;9.220;2023-01-29T09:49:17;101176.28;;;0.71;69.60
17260;BME280;8746;49.230;9.220;2023-01-29T09:51:49;101175.16;;;0.60;68.50
17260;BME280;8746;49.230;9.220;2023-01-29T09:54:23;101182.19;;;0.64;68.58
17260;BME280;8746;49.230;9.220;2023-01-29T09:56:54;101174.56;;;1.19;69.26
17260;BME280;8746;49.230;9.220;2023-01-29T09:59:22;101175.50;;;1.23;67.74
17260;BME280;8746;49.230;9.220;2023-01-29T10:07:13;101164.47;;;1.35;65.81
17260;BME280;8746;49.230;9.220;2023-01-29T10:15:09;101183.94;;;1.60;65.65
17260;BME280;8746;49.230;9.220;2023-01-29T10:25:39;101189.34;;;1.22;68.29
17260;BME280;8746;49.230;9.220;2023-01-29T10:28:37;101200.97;;;1.41;67.39
17260;BME280;8746;49.230;9.220;2023-01-29T10:31:12;101190.78;;;1.53;67.20
17260;BME280;8746;49.230;9.220;2023-01-29T10:33:44;101189.34;;;1.22;67.73
17260;BME280;8746;49.230;9.220;2023-01-29T10:36:17;101201.22;;;1.56;67.95
17260;BME280;8746;49.230;9.220;2023-01-29T10:38:47;101195.53;;;1.28;66.74
17260;BME280;8746;49.230;9.220;2023-01-29T10:49:07;101198.75;;;0.71;68.19
17260;BME280;8746;49.230;9.220;2023-01-29T11:00:11;101169.91;;;1.01;68.51
17260;BME280;8746;49.230;9.220;2023-01-29T11:02:46;101166.91;;;1.27;67.62
17260;BME280;8746;49.230;9.220;2023-01-29T11:05:39;101161.56;;;1.19;66.63
17260;BME280;8746;49.230;9.220;2023-01-29T11:08:11;101150.50;;;0.82;67.90
17260;BME280;8746;49.230;9.220;2023-01-29T11:11:11;101151.56;;;0.92;68.55
17260;BME280;8746;49.230;9.220;2023-01-29T11:13:41;101139.63;;;1.03;68.40
17260;BME280;8746;49.230;9.220;2023-01-29T11:16:08;101132.84;;;1.11;68.98
17260;BME280;8746;49.230;9.220;2023-01-29T11:18:53;101127.03;;;1.25;66.69
17260;BME280;8746;49.230;9.220;2023-01-29T11:21:20;101122.03;;;1.37;66.49
17260;BME280;8746;49.230;9.220;2023-01-29T11:23:45;101113.44;;;2.01;66.32
17260;BME280;8746;49.230;9.220;2023-01-29T11:26:13;101114.03;;;2.48;64.84
17260;BME280;8746;49.230;9.220;2023-01-29T11:28:46;101119.53;;;2.74;64.00
17260;BME280;8746;49.230;9.220;2023-01-29T11:31:26;101123.22;;;2.18;64.56
17260;BME280;8746;49.230;9.220;2023-01-29T11:34:19;101122.03;;;1.96;66.39
17260;BME280;8746;49.230;9.220;2023-01-29T11:39:24;101115.59;;;1.70;65.11
17260;BME280;8746;49.230;9.220;2023-01-29T11:41:58;101098.06;;;1.57;66.12
17260;BME280;8746;49.230;9.220;2023-01-29T11:44:41;101101.50;;;1.56;66.13
17260;BME280;8746;49.230;9.220;2023-01-29T11:49:37;101096.78;;;1.32;66.85
17260;BME280;8746;49.230;9.220;2023-01-29T11:52:05;101094.31;;;1.39;67.01
17260;BME280;8746;49.230;9.220;2023-01-29T11:54:36;101095.47;;;1.03;67.53
17260;BME280;8746;49.230;9.220;2023-01-29T11:57:03;101099.63;;;0.93;68.38
17260;BME280;8746;49.230;9.220;2023-01-29T11:59:41;101093.06;;;1.17;68.43
17260;BME280;8746;49.230;9.220;2023-01-29T12:04:47;101081.84;;;1.20;69.02
17260;BME280;8746;49.230;9.220;2023-01-29T12:07:15;101087.75;;;1.08;67.98
17260;BME280;8746;49.230;9.220;2023-01-29T12:09:48;101076.56;;;1.14;68.26
17260;BME280;8746;49.230;9.220;2023-01-29T12:12:31;101060.53;;;1.41;68.06
17260;BME280;8746;49.230;9.220;2023-01-29T12:15:21;101046.06;;;1.60;67.54
17260;BME280;8746;49.230;9.220;2023-01-29T12:20:55;101031.53;;;1.73;66.37
17260;BME280;8746;49.230;9.220;2023-01-29T12:23:31;101020.63;;;2.03;67.10
17260;BME280;8746;49.230;9.220;2023-01-29T12:26:08;101011.13;;;2.07;65.87
17260;BME280;8746;49.230;9.220;2023-01-29T12:31:37;101005.59;;;1.81;66.43
17260;BME280;8746;49.230;9.220;2023-01-29T12:34:41;101005.66;;;1.87;66.83
17260;BME280;8746;49.230;9.220;2023-01-29T12:37:47;100998.13;;;1.41;68.14
17260;BME280;8746;49.230;9.220;2023-01-29T12:40:16;100996.56;;;1.55;67.80
17260;BME280;8746;49.230;9.220;2023-01-29T12:42:49;100998.69;;;1.84;67.06
17260;BME280;8746;49.230;9.220;2023-01-29T12:45:21;100998.56;;;1.72;67.12
17260;BME280;8746;49.230;9.220;2023-01-29T12:47:51;100986.38;;;1.68;66.98
17260;BME280;8746;49.230;9.220;2023-01-29T12:50:38;100984.75;;;1.78;66.69
17260;BME280;8746;49.230;9.220;2023-01-29T12:53:24;100984.69;;;1.71;66.20
17260;BME280;8746;49.230;9.220;2023-01-29T12:55:56;100975.50;;;2.01;66.11
17260;BME280;8746;49.230;9.220;2023-01-29T12:58:28;100971.81;;;1.84;67.37
17260;BME280;8746;49.230;9.220;2023-01-29T13:00:58;100977.75;;;1.73;67.30
17260;BME280;8746;49.230;9.220;2023-01-29T13:03:29;100989.28;;;1.96;67.04
17260;BME280;8746;49.230;9.220;2023-01-29T13:06:02;100975.16;;;1.73;66.48
17260;BME280;8746;49.230;9.220;2023-01-29T13:08:49;100979.59;;;1.82;67.95
17260;BME280;8746;49.230;9.220;2023-01-29T13:11:45;100973.06;;;1.44;66.97
17260;BME280;8746;49.230;9.220;2023-01-29T13:14:22;100979.44;;;1.08;69.75
17260;BME280;8746;49.230;9.220;2023-01-29T13:17:00;100978.13;;;1.35;68.74
17260;BME280;8746;49.230;9.220;2023-01-29T13:19:35;100975.31;;;1.21;69.60
17260;BME280;8746;49.230;9.220;2023-01-29T13:22:02;100981.03;;;1.60;69.17
17260;BME280;8746;49.230;9.220;2023-01-29T13:24:38;100979.34;;;1.62;68.59
17260;BME280;8746;49.230;9.220;2023-01-29T13:27:04;100974.22;;;1.70;68.56
17260;BME280;8746;49.230;9.220;2023-01-29T13:29:31;100967.69;;;2.03;68.73
17260;BME280;8746;49.230;9.220;2023-01-29T13:31:58;100964.41;;;2.19;67.49
17260;BME280;8746;49.230;9.220;2023-01-29T13:34:36;100965.06;;;1.98;67.43
17260;BME280;8746;49.230;9.220;2023-01-29T13:39:49;100955.94;;;1.64;68.22
17260;BME280;8746;49.230;9.220;2023-01-29T13:42:20;100952.50;;;1.63;67.88
17260;BME280;8746;49.230;9.220;2023-01-29T13:44:48;100961.88;;;1.52;69.30
17260;BME280;8746;49.230;9.220;2023-01-29T13:47:32;100953.28;;;1.57;68.22
17260;BME280;8746;49.230;9.220;2023-01-29T13:50:06;100953.88;;;1.36;69.10
17260;BME280;8746;49.230;9.220;2023-01-29T13:57:49;100939.84;;;1.25;69.29
17260;BME280;8746;49.230;9.220;2023-01-29T14:02:47;100930.06;;;1.71;69.01
17260;BME280;8746;49.230;9.220;2023-01-29T14:05:42;100927.19;;;1.51;69.59
17260;BME280;8746;49.230;9.220;2023-01-29T14:10:37;100921.97;;;1.50;70.33
17260;BME280;8746;49.230;9.220;2023-01-29T14:15:32;100928.97;;;0.91;70.62
17260;BME280;8746;49.230;9.220;2023-01-29T14:20:36;100933.16;;;0.83;71.30
17260;BME280;8746;49.230;9.220;2023-01-29T14:23:03;100922.75;;;0.83;71.85
17260;BME280;8746;49.230;9.220;2023-01-29T14:25:33;100917.63;;;0.86;72.09
17260;BME280;8746;49.230;9.220;2023-01-29T14:28:01;100930.19;;;0.61;72.07
17260;BME280;8746;49.230;9.220;2023-01-29T14:30:31;100922.66;;;0.75;72.29
17260;BME280;8746;49.230;9.220;2023-01-29T14:32:59;100927.88;;;0.78;70.88
17260;BME280;8746;49.230;9.220;2023-01-29T14:35:28;100920.97;;;0.78;71.17
17260;BME280;8746;49.230;9.220;2023-01-29T14:37:59;100927.69;;;0.66;71.60
17260;BME280;8746;49.230;9.220;2023-01-29T14:40:28;100934.00;;;0.82;71.93
17260;BME280;8746;49.230;9.220;2023-01-29T14:43:07;100939.09;;;0.75;71.53
17260;BME280;8746;49.230;9.220;2023-01-29T14:45:36;100940.94;;;0.83;71.80
17260;BME280;8746;49.230;9.220;2023-01-29T14:53:08;100942.88;;;0.96;72.18
17260;BME280;8746;49.230;9.220;2023-01-29T14:55:44;100934.16;;;0.91;71.51
17260;BME280;8746;49.230;9.220;2023-01-29T14:58:15;100926.22;;;0.83;72.52
17260;BME280;8746;49.230;9.220;2023-01-29T15:00:44;100937.22;;;0.65;72.78
17260;BME280;8746;49.230;9.220;2023-01-29T15:03:14;100931.22;;;0.69;73.51
17260;BME280;8746;49.230;9.220;2023-01-29T15:05:44;100931.28;;;0.72;73.36
17260;BME280;8746;49.230;9.220;2023-01-29T15:08:18;100933.06;;;0.78;73.38
17260;BME280;8746;49.230;9.220;2023-01-29T15:10:55;100933.91;;;0.75;72.60